Millardsville, Pennsylvania
Current Conditions -  °F | °C
As of 6:58 PM on Friday 19 Dec 2014 (Local Time) from KMUI Reporting Station
Broken Clouds Broken Clouds  
Wind Chill: 30°   Ceiling: 3800
Heat Index: 34°   Visibility: 10mi
Dew Point: 20°   Wind: 5mph
Humidity: 55%   Direction: NA
Pressure: 30.17"   Gusts: NA
Location:  40.3869°N, 76.3173°W
Report Text: KMUI 192358Z AUTO VRB04KT 10SM BKN038 01/M07 A3017 RMK AO2 SLP224 T00131068 10044 20012 51016
Loading
Personal Weather Stations






























Interactive Weather Map New forecast layout! Learn more

10-Day Weather Forecast

Advertisements
Track Severe Weather on mobile